Stove Pipe Wells, California
Current Conditions -  °F | °C
As of 12:56 AM on Saturday 25 Oct 2014 (Local Time) from KNID Reporting Station
Clear Clear  
Wind Chill: 19°   Ceiling: Unl
Heat Index: 19°   Visibility: 10mi
Dew Point:   Wind: 13mph
Humidity: 30%   Direction: 210°SSW
Pressure: 30.01"   Gusts: NA
Location:  36.3785°N, 117.161°W
Report Text: KNID 250756Z AUTO 21011KT 10SM CLR 19/01 A3001 RMK AO2 SLP146 T01940011 403220083 $
Loading
Personal Weather Stations






























Interactive Weather Map
Tropical Storm Tracking
New forecast layout! Learn more

10-Day Weather Forecast

Advertisements
Track Severe Weather on mobile